sensor_id;sensor_type;location;lat;lon;timestamp;pressure;altitude;pressure_sealevel;temperature;humidity
60583;BME280;46415;47.536;19.066;2024-01-11T00:01:03;-18092.47;;;-5.02;100.00
60583;BME280;46415;47.536;19.066;2024-01-11T00:04:06;-18093.84;;;-4.97;100.00
60583;BME280;46415;47.536;19.066;2024-01-11T00:07:09;-18095.09;;;-4.93;100.00
60583;BME280;46415;47.536;19.066;2024-01-11T00:10:12;-18095.38;;;-4.91;100.00
60583;BME280;46415;47.536;19.066;2024-01-11T00:13:15;-18094.41;;;-4.95;100.00
60583;BME280;46415;47.536;19.066;2024-01-11T00:16:17;-18092.91;;;-5.01;100.00
60583;BME280;46415;47.536;19.066;2024-01-11T00:19:20;-18091.66;;;-5.05;100.00
60583;BME280;46415;47.536;19.066;2024-01-11T00:22:23;-18091.91;;;-5.04;100.00
60583;BME280;46415;47.536;19.066;2024-01-11T00:25:26;-18091.50;;;-5.06;100.00
60583;BME280;46415;47.536;19.066;2024-01-11T00:28:29;-18090.97;;;-5.08;100.00
60583;BME280;46415;47.536;19.066;2024-01-11T00:31:31;-18090.81;;;-5.08;100.00
60583;BME280;46415;47.536;19.066;2024-01-11T00:34:34;-18087.50;;;-5.20;100.00
60583;BME280;46415;47.536;19.066;2024-01-11T00:37:38;-18086.13;;;-5.25;100.00
60583;BME280;46415;47.536;19.066;2024-01-11T00:40:41;-18085.84;;;-5.26;100.00
60583;BME280;46415;47.536;19.066;2024-01-11T00:43:43;-18086.81;;;-5.23;100.00
60583;BME280;46415;47.536;19.066;2024-01-11T00:46:46;-18086.81;;;-5.23;100.00
60583;BME280;46415;47.536;19.066;2024-01-11T00:49:49;-18084.44;;;-5.31;100.00
60583;BME280;46415;47.536;19.066;2024-01-11T00:52:52;-18083.75;;;-5.34;100.00
60583;BME280;46415;47.536;19.066;2024-01-11T00:55:55;-18082.78;;;-5.38;100.00
60583;BME280;46415;47.536;19.066;2024-01-11T00:58:58;-18083.34;;;-5.36;100.00
60583;BME280;46415;47.536;19.066;2024-01-11T01:02:00;-18085.84;;;-5.26;100.00
60583;BME280;46415;47.536;19.066;2024-01-11T01:05:03;-18085.84;;;-5.26;100.00
60583;BME280;46415;47.536;19.066;2024-01-11T01:08:06;-18086.53;;;-5.24;100.00
60583;BME280;46415;47.536;19.066;2024-01-11T01:11:09;-18086.94;;;-5.22;100.00
60583;BME280;46415;47.536;19.066;2024-01-11T01:14:12;-18086.38;;;-5.24;100.00
60583;BME280;46415;47.536;19.066;2024-01-11T01:17:15;-18085.28;;;-5.28;100.00
60583;BME280;46415;47.536;19.066;2024-01-11T01:20:18;-18083.34;;;-5.36;100.00
60583;BME280;46415;47.536;19.066;2024-01-11T01:23:21;-18082.66;;;-5.38;100.00
60583;BME280;46415;47.536;19.066;2024-01-11T01:26:24;-18081.41;;;-5.43;100.00
60583;BME280;46415;47.536;19.066;2024-01-11T01:29:27;-18081.69;;;-5.42;100.00
60583;BME280;46415;47.536;19.066;2024-01-11T01:32:29;-18081.41;;;-5.43;100.00
60583;BME280;46415;47.536;19.066;2024-01-11T01:35:33;-18080.16;;;-5.47;100.00
60583;BME280;46415;47.536;19.066;2024-01-11T01:38:37;-18079.19;;;-5.51;100.00
60583;BME280;46415;47.536;19.066;2024-01-11T01:41:40;-18080.28;;;-5.47;100.00
60583;BME280;46415;47.536;19.066;2024-01-11T01:44:43;-18081.69;;;-5.42;100.00
60583;BME280;46415;47.536;19.066;2024-01-11T01:47:46;-18080.44;;;-5.46;100.00
60583;BME280;46415;47.536;19.066;2024-01-11T01:50:49;-18081.41;;;-5.43;100.00
60583;BME280;46415;47.536;19.066;2024-01-11T01:53:55;-18080.56;;;-5.46;100.00
60583;BME280;46415;47.536;19.066;2024-01-11T01:56:59;-18079.75;;;-5.49;100.00
60583;BME280;46415;47.536;19.066;2024-01-11T02:00:02;-18080.72;;;-5.45;100.00
60583;BME280;46415;47.536;19.066;2024-01-11T02:03:12;-18079.31;;;-5.50;100.00
60583;BME280;46415;47.536;19.066;2024-01-11T02:06:17;-18077.81;;;-5.56;100.00
60583;BME280;46415;47.536;19.066;2024-01-11T02:09:20;-18077.53;;;-5.57;100.00
60583;BME280;46415;47.536;19.066;2024-01-11T02:12:25;-18078.34;;;-5.54;100.00
60583;BME280;46415;47.536;19.066;2024-01-11T02:15:28;-18078.09;;;-5.55;100.00
60583;BME280;46415;47.536;19.066;2024-01-11T02:18:30;-18078.09;;;-5.55;100.00
60583;BME280;46415;47.536;19.066;2024-01-11T02:21:33;-18077.25;;;-5.58;100.00
60583;BME280;46415;47.536;19.066;2024-01-11T02:24:37;-18077.94;;;-5.55;100.00
60583;BME280;46415;47.536;19.066;2024-01-11T02:27:49;-18077.13;;;-5.58;100.00
60583;BME280;46415;47.536;19.066;2024-01-11T02:30:52;-18077.25;;;-5.58;100.00
60583;BME280;46415;47.536;19.066;2024-01-11T02:33:55;-18078.34;;;-5.54;100.00
60583;BME280;46415;47.536;19.066;2024-01-11T02:36:58;-18078.22;;;-5.54;100.00
60583;BME280;46415;47.536;19.066;2024-01-11T02:40:01;-18079.19;;;-5.51;100.00
60583;BME280;46415;47.536;19.066;2024-01-11T02:43:08;-18077.81;;;-5.56;100.00
60583;BME280;46415;47.536;19.066;2024-01-11T02:46:10;-18076.56;;;-5.60;100.00
60583;BME280;46415;47.536;19.066;2024-01-11T02:49:13;-18076.69;;;-5.60;100.00
60583;BME280;46415;47.536;19.066;2024-01-11T02:52:16;-18075.72;;;-5.63;100.00
60583;BME280;46415;47.536;19.066;2024-01-11T02:55:19;-18073.66;;;-5.71;100.00
60583;BME280;46415;47.536;19.066;2024-01-11T02:58:21;-18072.53;;;-5.75;100.00
60583;BME280;46415;47.536;19.066;2024-01-11T03:01:24;-18071.16;;;-5.80;100.00
60583;BME280;46415;47.536;19.066;2024-01-11T03:04:27;-18070.59;;;-5.82;100.00
60583;BME280;46415;47.536;19.066;2024-01-11T03:07:29;-18070.19;;;-5.84;100.00
60583;BME280;46415;47.536;19.066;2024-01-11T03:10:32;-18069.22;;;-5.87;100.00
60583;BME280;46415;47.536;19.066;2024-01-11T03:13:35;-18068.94;;;-5.88;100.00
60583;BME280;46415;47.536;19.066;2024-01-11T03:16:38;-18068.94;;;-5.88;100.00
60583;BME280;46415;47.536;19.066;2024-01-11T03:19:42;-18069.78;;;-5.85;100.00
60583;BME280;46415;47.536;19.066;2024-01-11T03:22:45;-18069.63;;;-5.86;100.00
60583;BME280;46415;47.536;19.066;2024-01-11T03:25:48;-18068.41;;;-5.90;100.00
60583;BME280;46415;47.536;19.066;2024-01-11T03:28:51;-18067.56;;;-5.93;100.00
60583;BME280;46415;47.536;19.066;2024-01-11T03:31:54;-18067.16;;;-5.95;100.00
60583;BME280;46415;47.536;19.066;2024-01-11T03:34:56;-18068.81;;;-5.89;100.00
60583;BME280;46415;47.536;19.066;2024-01-11T03:37:59;-18069.22;;;-5.87;100.00
60583;BME280;46415;47.536;19.066;2024-01-11T03:41:02;-18068.41;;;-5.90;100.00
60583;BME280;46415;47.536;19.066;2024-01-11T03:44:05;-18068.25;;;-5.91;100.00
60583;BME280;46415;47.536;19.066;2024-01-11T03:47:07;-18068.53;;;-5.90;100.00
60583;BME280;46415;47.536;19.066;2024-01-11T03:50:10;-18069.22;;;-5.87;100.00
60583;BME280;46415;47.536;19.066;2024-01-11T03:53:13;-18070.31;;;-5.83;100.00
60583;BME280;46415;47.536;19.066;2024-01-11T03:56:16;-18067.56;;;-5.93;100.00
60583;BME280;46415;47.536;19.066;2024-01-11T03:59:19;-18067.84;;;-5.92;100.00
60583;BME280;46415;47.536;19.066;2024-01-11T04:02:22;-18065.75;;;-6.00;100.00
60583;BME280;46415;47.536;19.066;2024-01-11T04:05:24;-18066.03;;;-5.99;100.00
60583;BME280;46415;47.536;19.066;2024-01-11T04:08:27;-18066.31;;;-5.98;100.00
60583;BME280;46415;47.536;19.066;2024-01-11T04:11:30;-18066.47;;;-5.97;100.00
60583;BME280;46415;47.536;19.066;2024-01-11T04:14:33;-18066.47;;;-5.97;100.00
60583;BME280;46415;47.536;19.066;2024-01-11T04:17:36;-18065.06;;;-6.02;100.00
60583;BME280;46415;47.536;19.066;2024-01-11T04:20:39;-18064.25;;;-6.05;100.00
60583;BME280;46415;47.536;19.066;2024-01-11T04:23:42;-18064.81;;;-6.03;100.00
60583;BME280;46415;47.536;19.066;2024-01-11T04:26:44;-18066.19;;;-5.98;100.00
60583;BME280;46415;47.536;19.066;2024-01-11T04:29:47;-18067.28;;;-5.94;100.00
60583;BME280;46415;47.536;19.066;2024-01-11T04:32:50;-18067.56;;;-5.93;100.00
60583;BME280;46415;47.536;19.066;2024-01-11T04:35:53;-18068.94;;;-5.88;100.00
60583;BME280;46415;47.536;19.066;2024-01-11T04:38:55;-18069.78;;;-5.85;100.00
60583;BME280;46415;47.536;19.066;2024-01-11T04:41:58;-18068.66;;;-5.89;100.00
60583;BME280;46415;47.536;19.066;2024-01-11T04:45:01;-18069.38;;;-5.87;100.00
60583;BME280;46415;47.536;19.066;2024-01-11T04:48:04;-18071.56;;;-5.79;100.00
60583;BME280;46415;47.536;19.066;2024-01-11T04:51:07;-18071.44;;;-5.79;100.00
60583;BME280;46415;47.536;19.066;2024-01-11T04:54:09;-18071.31;;;-5.80;100.00
60583;BME280;46415;47.536;19.066;2024-01-11T04:57:12;-18069.63;;;-5.86;100.00
60583;BME280;46415;47.536;19.066;2024-01-11T05:00:15;-18072.28;;;-5.76;100.00
60583;BME280;46415;47.536;19.066;2024-01-11T05:03:17;-18071.72;;;-5.78;100.00
60583;BME280;46415;47.536;19.066;2024-01-11T05:06:21;-18072.81;;;-5.74;100.00
60583;BME280;46415;47.536;19.066;2024-01-11T05:09:24;-18072.41;;;-5.76;100.00
60583;BME280;46415;47.536;19.066;2024-01-11T05:12:27;-18072.28;;;-5.76;100.00
60583;BME280;46415;47.536;19.066;2024-01-11T05:15:29;-18072.41;;;-5.76;100.00
60583;BME280;46415;47.536;19.066;2024-01-11T05:18:32;-18072.97;;;-5.73;100.00
60583;BME280;46415;47.536;19.066;2024-01-11T05:21:36;-18072.28;;;-5.76;100.00
60583;BME280;46415;47.536;19.066;2024-01-11T05:24:39;-18070.88;;;-5.81;100.00
60583;BME280;46415;47.536;19.066;2024-01-11T05:27:41;-18069.22;;;-5.87;100.00
60583;BME280;46415;47.536;19.066;2024-01-11T05:30:44;-18069.50;;;-5.86;100.00
60583;BME280;46415;47.536;19.066;2024-01-11T05:33:46;-18072.41;;;-5.76;100.00
60583;BME280;46415;47.536;19.066;2024-01-11T05:36:50;-18072.53;;;-5.75;100.00
60583;BME280;46415;47.536;19.066;2024-01-11T05:39:53;-18072.28;;;-5.76;100.00
60583;BME280;46415;47.536;19.066;2024-01-11T05:42:57;-18073.25;;;-5.72;100.00
60583;BME280;46415;47.536;19.066;2024-01-11T05:45:59;-18073.25;;;-5.72;100.00
60583;BME280;46415;47.536;19.066;2024-01-11T05:49:02;-18069.50;;;-5.86;100.00
60583;BME280;46415;47.536;19.066;2024-01-11T05:52:05;-18068.53;;;-5.90;100.00
60583;BME280;46415;47.536;19.066;2024-01-11T05:55:08;-18068.41;;;-5.90;100.00
60583;BME280;46415;47.536;19.066;2024-01-11T05:58:11;-18068.41;;;-5.90;100.00
60583;BME280;46415;47.536;19.066;2024-01-11T06:01:14;-18068.81;;;-5.89;100.00
60583;BME280;46415;47.536;19.066;2024-01-11T06:04:17;-18068.41;;;-5.90;100.00
60583;BME280;46415;47.536;19.066;2024-01-11T06:07:19;-18069.22;;;-5.87;100.00
60583;BME280;46415;47.536;19.066;2024-01-11T06:10:23;-18069.22;;;-5.87;100.00
60583;BME280;46415;47.536;19.066;2024-01-11T06:13:26;-18069.63;;;-5.86;100.00
60583;BME280;46415;47.536;19.066;2024-01-11T06:16:29;-18070.75;;;-5.82;100.00
60583;BME280;46415;47.536;19.066;2024-01-11T06:19:31;-18073.09;;;-5.73;100.00
60583;BME280;46415;47.536;19.066;2024-01-11T06:22:35;-18075.03;;;-5.66;100.00
60583;BME280;46415;47.536;19.066;2024-01-11T06:26:46;-18095.81;;;-4.90;100.00
60583;BME280;46415;47.536;19.066;2024-01-11T06:29:49;-18095.81;;;-4.90;100.00
60583;BME280;46415;47.536;19.066;2024-01-11T06:32:52;-18083.75;;;-5.34;100.00
60583;BME280;46415;47.536;19.066;2024-01-11T06:35:58;-18084.59;;;-5.31;100.00
60583;BME280;46415;47.536;19.066;2024-01-11T06:39:00;-18083.47;;;-5.35;100.00
60583;BME280;46415;47.536;19.066;2024-01-11T06:42:04;-18084.44;;;-5.31;100.00
60583;BME280;46415;47.536;19.066;2024-01-11T06:45:07;-18085.00;;;-5.29;100.00
60583;BME280;46415;47.536;19.066;2024-01-11T06:48:11;-18088.59;;;-5.16;100.00
60583;BME280;46415;47.536;19.066;2024-01-11T06:51:21;-18090.53;;;-5.09;100.00
60583;BME280;46415;47.536;19.066;2024-01-11T06:54:24;-18093.44;;;-4.99;100.00
60583;BME280;46415;47.536;19.066;2024-01-11T06:57:28;-18097.75;;;-4.83;100.00
60583;BME280;46415;47.536;19.066;2024-01-11T07:00:31;-18101.59;;;-4.69;100.00
60583;BME280;46415;47.536;19.066;2024-01-11T07:03:34;-18105.06;;;-4.56;100.00
60583;BME280;46415;47.536;19.066;2024-01-11T07:06:37;-18111.44;;;-4.33;100.00
60583;BME280;46415;47.536;19.066;2024-01-11T07:09:40;-18118.75;;;-4.06;100.00
60583;BME280;46415;47.536;19.066;2024-01-11T07:12:43;-18120.16;;;-4.01;100.00
60583;BME280;46415;47.536;19.066;2024-01-11T07:15:48;-18121.25;;;-3.97;100.00
60583;BME280;46415;47.536;19.066;2024-01-11T07:18:51;-18124.16;;;-3.86;100.00
60583;BME280;46415;47.536;19.066;2024-01-11T07:21:54;-18126.94;;;-3.76;100.00
60583;BME280;46415;47.536;19.066;2024-01-11T07:24:57;-18129.56;;;-3.66;100.00
60583;BME280;46415;47.536;19.066;2024-01-11T07:28:00;-18129.56;;;-3.66;100.00
60583;BME280;46415;47.536;19.066;2024-01-11T07:31:03;-18133.28;;;-3.53;100.00
60583;BME280;46415;47.536;19.066;2024-01-11T07:34:06;-18141.44;;;-3.23;100.00
60583;BME280;46415;47.536;19.066;2024-01-11T07:37:09;-18143.25;;;-3.16;100.00
60583;BME280;46415;47.536;19.066;2024-01-11T07:40:12;-18146.56;;;-3.04;100.00
60583;BME280;46415;47.536;19.066;2024-01-11T07:43:16;-18149.59;;;-2.93;100.00
60583;BME280;46415;47.536;19.066;2024-01-11T07:46:19;-18152.34;;;-2.83;100.00
60583;BME280;46415;47.536;19.066;2024-01-11T07:49:37;-18154.44;;;-2.75;100.00
60583;BME280;46415;47.536;19.066;2024-01-11T07:52:40;-18155.41;;;-2.72;100.00
60583;BME280;46415;47.536;19.066;2024-01-11T07:55:46;-18158.31;;;-2.61;100.00
60583;BME280;46415;47.536;19.066;2024-01-11T07:58:50;-18162.16;;;-2.47;100.00
60583;BME280;46415;47.536;19.066;2024-01-11T08:01:53;-18166.31;;;-2.32;100.00
60583;BME280;46415;47.536;19.066;2024-01-11T08:04:56;-18168.53;;;-2.24;100.00
60583;BME280;46415;47.536;19.066;2024-01-11T08:07:59;-18170.47;;;-2.17;100.00
60583;BME280;46415;47.536;19.066;2024-01-11T08:11:06;-18174.19;;;-2.03;100.00
60583;BME280;46415;47.536;19.066;2024-01-11T08:14:09;-18177.91;;;-1.89;100.00
60583;BME280;46415;47.536;19.066;2024-01-11T08:17:13;-18182.06;;;-1.74;100.00
60583;BME280;46415;47.536;19.066;2024-01-11T08:20:16;-18184.00;;;-1.67;100.00
60583;BME280;46415;47.536;19.066;2024-01-11T08:23:19;-18187.72;;;-1.53;100.00
60583;BME280;46415;47.536;19.066;2024-01-11T08:26:23;-18187.59;;;-1.54;100.00
60583;BME280;46415;47.536;19.066;2024-01-11T08:29:26;-18191.31;;;-1.40;100.00
60583;BME280;46415;47.536;19.066;2024-01-11T08:32:30;-18193.53;;;-1.32;100.00
60583;BME280;46415;47.536;19.066;2024-01-11T08:35:34;-18195.59;;;-1.25;100.00
60583;BME280;46415;47.536;19.066;2024-01-11T08:38:37;-18198.34;;;-1.14;100.00
60583;BME280;46415;47.536;19.066;2024-01-11T08:41:41;-18201.25;;;-1.04;96.81
60583;BME280;46415;47.536;19.066;2024-01-11T08:44:45;-18205.25;;;-0.89;97.45
60583;BME280;46415;47.536;19.066;2024-01-11T08:47:48;-18205.53;;;-0.88;93.53
60583;BME280;46415;47.536;19.066;2024-01-11T08:50:51;-18207.59;;;-0.80;91.04
60583;BME280;46415;47.536;19.066;2024-01-11T08:53:54;-18212.16;;;-0.64;84.08
60583;BME280;46415;47.536;19.066;2024-01-11T08:56:58;-18216.84;;;-0.47;84.27
60583;BME280;46415;47.536;19.066;2024-01-11T09:00:02;-18217.97;;;-0.43;80.07
60583;BME280;46415;47.536;19.066;2024-01-11T09:03:05;-18224.84;;;-0.17;79.69
60583;BME280;46415;47.536;19.066;2024-01-11T09:06:08;-18228.44;;;-0.04;79.22
60583;BME280;46415;47.536;19.066;2024-01-11T09:09:11;-18232.44;;;0.11;76.82
60583;BME280;46415;47.536;19.066;2024-01-11T09:12:16;-18233.28;;;0.14;76.26
60583;BME280;46415;47.536;19.066;2024-01-11T09:15:19;-18231.47;;;0.07;76.17
60583;BME280;46415;47.536;19.066;2024-01-11T09:18:22;-18231.19;;;0.06;76.10
60583;BME280;46415;47.536;19.066;2024-01-11T09:21:28;-18229.81;;;0.01;75.69
60583;BME280;46415;47.536;19.066;2024-01-11T09:24:31;-18230.38;;;0.03;77.54
60583;BME280;46415;47.536;19.066;2024-01-11T09:27:39;-18239.75;;;0.37;75.74
60583;BME280;46415;47.536;19.066;2024-01-11T09:30:42;-18239.06;;;0.35;69.38
60583;BME280;46415;47.536;19.066;2024-01-11T09:33:45;-18238.38;;;0.32;69.54
60583;BME280;46415;47.536;19.066;2024-01-11T09:36:49;-18242.94;;;0.49;70.31
60583;BME280;46415;47.536;19.066;2024-01-11T09:39:54;-18243.34;;;0.51;70.16
60583;BME280;46415;47.536;19.066;2024-01-11T09:42:58;-18246.53;;;0.62;67.77
60583;BME280;46415;47.536;19.066;2024-01-11T09:46:04;-18248.87;;;0.71;65.85
60583;BME280;46415;47.536;19.066;2024-01-11T09:49:10;-18248.59;;;0.70;62.94
60583;BME280;46415;47.536;19.066;2024-01-11T09:52:15;-18249.69;;;0.74;58.20
60583;BME280;46415;47.536;19.066;2024-01-11T09:55:18;-18255.06;;;0.94;60.57
60583;BME280;46415;47.536;19.066;2024-01-11T09:58:22;-18258.09;;;1.05;59.60
60583;BME280;46415;47.536;19.066;2024-01-11T10:01:25;-18256.31;;;0.98;58.79
60583;BME280;46415;47.536;19.066;2024-01-11T10:04:28;-18260.84;;;1.15;59.14
60583;BME280;46415;47.536;19.066;2024-01-11T10:07:32;-18263.75;;;1.26;58.02
60583;BME280;46415;47.536;19.066;2024-01-11T10:10:35;-18262.09;;;1.19;60.96
60583;BME280;46415;47.536;19.066;2024-01-11T10:13:38;-18265.69;;;1.33;62.14
60583;BME280;46415;47.536;19.066;2024-01-11T10:16:42;-18271.47;;;1.54;63.27
60583;BME280;46415;47.536;19.066;2024-01-11T10:19:46;-18271.19;;;1.53;60.81
60583;BME280;46415;47.536;19.066;2024-01-11T10:22:49;-18275.06;;;1.67;61.37
60583;BME280;46415;47.536;19.066;2024-01-11T10:25:56;-18273.69;;;1.62;64.72
60583;BME280;46415;47.536;19.066;2024-01-11T10:29:00;-18271.87;;;1.55;62.94
60583;BME280;46415;47.536;19.066;2024-01-11T10:32:03;-18275.88;;;1.70;63.75
60583;BME280;46415;47.536;19.066;2024-01-11T10:35:07;-18276.44;;;1.72;64.58
60583;BME280;46415;47.536;19.066;2024-01-11T10:38:11;-18278.38;;;1.79;65.34
60583;BME280;46415;47.536;19.066;2024-01-11T10:41:18;-18279.19;;;1.82;66.76
60583;BME280;46415;47.536;19.066;2024-01-11T10:44:22;-18276.28;;;1.72;66.64
60583;BME280;46415;47.536;19.066;2024-01-11T10:47:30;-18277.13;;;1.75;67.23
60583;BME280;46415;47.536;19.066;2024-01-11T10:50:36;-18277.53;;;1.76;67.27
60583;BME280;46415;47.536;19.066;2024-01-11T10:53:46;-18274.78;;;1.66;65.35
60583;BME280;46415;47.536;19.066;2024-01-11T10:56:50;-18277.13;;;1.75;66.32
60583;BME280;46415;47.536;19.066;2024-01-11T10:59:55;-18277.94;;;1.78;67.20
60583;BME280;46415;47.536;19.066;2024-01-11T11:02:59;-18279.47;;;1.83;66.98
60583;BME280;46415;47.536;19.066;2024-01-11T11:06:04;-18280.44;;;1.87;68.15
60583;BME280;46415;47.536;19.066;2024-01-11T11:09:09;-18278.38;;;1.79;69.68
60583;BME280;46415;47.536;19.066;2024-01-11T11:12:13;-18280.44;;;1.87;70.35
60583;BME280;46415;47.536;19.066;2024-01-11T11:15:20;-18281.41;;;1.90;73.07
60583;BME280;46415;47.536;19.066;2024-01-11T11:18:26;-18281.41;;;1.90;73.22
60583;BME280;46415;47.536;19.066;2024-01-11T11:21:29;-18282.63;;;1.95;73.91
60583;BME280;46415;47.536;19.066;2024-01-11T11:24:35;-18281.53;;;1.91;73.67
60583;BME280;46415;47.536;19.066;2024-01-11T11:27:37;-18285.94;;;2.07;73.32
60583;BME280;46415;47.536;19.066;2024-01-11T11:30:42;-18285.53;;;2.05;71.79
60583;BME280;46415;47.536;19.066;2024-01-11T11:33:48;-18287.31;;;2.12;72.92
60583;BME280;46415;47.536;19.066;2024-01-11T11:36:52;-18286.09;;;2.08;74.47
60583;BME280;46415;47.536;19.066;2024-01-11T11:39:58;-18285.81;;;2.07;73.48
60583;BME280;46415;47.536;19.066;2024-01-11T11:43:05;-18289.66;;;2.21;71.30
60583;BME280;46415;47.536;19.066;2024-01-11T11:46:08;-18283.31;;;1.97;71.92
60583;BME280;46415;47.536;19.066;2024-01-11T11:49:11;-18279.59;;;1.84;73.15
60583;BME280;46415;47.536;19.066;2024-01-11T11:52:16;-18276.28;;;1.72;75.05
60583;BME280;46415;47.536;19.066;2024-01-11T11:55:20;-18276.44;;;1.72;75.88
60583;BME280;46415;47.536;19.066;2024-01-11T11:58:23;-18278.78;;;1.81;74.40
60583;BME280;46415;47.536;19.066;2024-01-11T12:01:26;-18278.91;;;1.81;74.17
60583;BME280;46415;47.536;19.066;2024-01-11T12:04:30;-18278.91;;;1.81;73.77
60583;BME280;46415;47.536;19.066;2024-01-11T12:07:32;-18278.09;;;1.78;74.68
60583;BME280;46415;47.536;19.066;2024-01-11T12:10:35;-18279.59;;;1.84;73.39
60583;BME280;46415;47.536;19.066;2024-01-11T12:13:40;-18275.06;;;1.67;74.17
60583;BME280;46415;47.536;19.066;2024-01-11T12:16:43;-18277.25;;;1.75;73.72
60583;BME280;46415;47.536;19.066;2024-01-11T12:19:45;-18276.97;;;1.74;72.77
60583;BME280;46415;47.536;19.066;2024-01-11T12:22:48;-18280.72;;;1.88;72.64
60583;BME280;46415;47.536;19.066;2024-01-11T12:25:51;-18283.31;;;1.97;73.66
60583;BME280;46415;47.536;19.066;2024-01-11T12:28:54;-18281.94;;;1.92;72.67
60583;BME280;46415;47.536;19.066;2024-01-11T12:31:57;-18290.50;;;2.24;nan
60583;BME280;46415;47.536;19.066;2024-01-11T12:35:04;-18297.38;;;2.49;69.77
60583;BME280;46415;47.536;19.066;2024-01-11T12:38:07;-18298.47;;;2.53;67.92
60583;BME280;46415;47.536;19.066;2024-01-11T12:41:12;-18297.94;;;2.51;68.87
60583;BME280;46415;47.536;19.066;2024-01-11T12:44:17;-18297.09;;;2.48;67.95
60583;BME280;46415;47.536;19.066;2024-01-11T12:47:20;-18293.94;;;2.36;67.57
60583;BME280;46415;47.536;19.066;2024-01-11T12:50:23;-18301.09;;;2.63;68.52
60583;BME280;46415;47.536;19.066;2024-01-11T12:53:29;-18298.19;;;2.52;67.54
60583;BME280;46415;47.536;19.066;2024-01-11T12:56:32;-18295.44;;;2.42;69.83
60583;BME280;46415;47.536;19.066;2024-01-11T12:59:35;-18304.41;;;2.75;66.56
60583;BME280;46415;47.536;19.066;2024-01-11T13:02:41;-18296.41;;;2.45;66.28
60583;BME280;46415;47.536;19.066;2024-01-11T13:05:47;-18298.34;;;2.53;67.03
60583;BME280;46415;47.536;19.066;2024-01-11T13:08:51;-18295.31;;;2.41;66.44
60583;BME280;46415;47.536;19.066;2024-01-11T13:11:55;-18306.88;;;2.84;64.62
60583;BME280;46415;47.536;19.066;2024-01-11T13:14:58;-18311.84;;;3.02;62.31
60583;BME280;46415;47.536;19.066;2024-01-11T13:18:01;-18309.63;;;2.94;60.86
60583;BME280;46415;47.536;19.066;2024-01-11T13:21:04;-18315.00;;;3.14;59.57
60583;BME280;46415;47.536;19.066;2024-01-11T13:24:10;-18308.66;;;2.91;59.35
60583;BME280;46415;47.536;19.066;2024-01-11T13:27:13;-18311.97;;;3.03;59.30
60583;BME280;46415;47.536;19.066;2024-01-11T13:30:16;-18328.34;;;3.63;58.03
60583;BME280;46415;47.536;19.066;2024-01-11T13:33:19;-18329.19;;;3.66;56.56
60583;BME280;46415;47.536;19.066;2024-01-11T13:36:25;-18324.91;;;3.50;57.05
60583;BME280;46415;47.536;19.066;2024-01-11T13:39:28;-18318.59;;;3.27;57.01
60583;BME280;46415;47.536;19.066;2024-01-11T13:42:31;-18313.06;;;3.07;57.73
60583;BME280;46415;47.536;19.066;2024-01-11T13:45:35;-18302.88;;;2.69;58.17
60583;BME280;46415;47.536;19.066;2024-01-11T13:48:41;-18295.88;;;2.43;58.45
60583;BME280;46415;47.536;19.066;2024-01-11T13:51:44;-18289.38;;;2.20;59.31
60583;BME280;46415;47.536;19.066;2024-01-11T13:55:02;-18284.16;;;2.00;59.91
60583;BME280;46415;47.536;19.066;2024-01-11T13:58:06;-18282.50;;;1.94;59.67
60583;BME280;46415;47.536;19.066;2024-01-11T14:01:09;-18280.00;;;1.85;58.61
60583;BME280;46415;47.536;19.066;2024-01-11T14:04:12;-18280.72;;;1.88;58.94
60583;BME280;46415;47.536;19.066;2024-01-11T14:07:15;-18280.97;;;1.89;58.87
60583;BME280;46415;47.536;19.066;2024-01-11T14:10:18;-18279.75;;;1.84;58.83
60583;BME280;46415;47.536;19.066;2024-01-11T14:13:21;-18278.78;;;1.81;58.45
60583;BME280;46415;47.536;19.066;2024-01-11T14:16:24;-18278.38;;;1.79;58.69
60583;BME280;46415;47.536;19.066;2024-01-11T14:19:29;-18277.25;;;1.75;55.66
60583;BME280;46415;47.536;19.066;2024-01-11T14:22:32;-18275.75;;;1.70;54.54
60583;BME280;46415;47.536;19.066;2024-01-11T14:25:35;-18277.41;;;1.76;54.48
60583;BME280;46415;47.536;19.066;2024-01-11T14:28:39;-18279.06;;;1.82;55.08
60583;BME280;46415;47.536;19.066;2024-01-11T14:31:45;-18282.09;;;1.93;55.89
60583;BME280;46415;47.536;19.066;2024-01-11T14:34:48;-18280.56;;;1.87;54.85
60583;BME280;46415;47.536;19.066;2024-01-11T14:37:52;-18279.19;;;1.82;55.53
60583;BME280;46415;47.536;19.066;2024-01-11T14:40:55;-18270.78;;;1.51;60.76
60583;BME280;46415;47.536;19.066;2024-01-11T14:44:02;-18267.06;;;1.38;64.52
60583;BME280;46415;47.536;19.066;2024-01-11T14:47:06;-18266.22;;;1.35;67.04
60583;BME280;46415;47.536;19.066;2024-01-11T14:50:09;-18264.31;;;1.28;69.07
60583;BME280;46415;47.536;19.066;2024-01-11T14:53:13;-18257.13;;;1.01;72.81
60583;BME280;46415;47.536;19.066;2024-01-11T14:56:17;-18257.28;;;1.02;72.46
60583;BME280;46415;47.536;19.066;2024-01-11T14:59:20;-18253.56;;;0.88;71.01
60583;BME280;46415;47.536;19.066;2024-01-11T15:02:23;-18252.72;;;0.85;71.41
60583;BME280;46415;47.536;19.066;2024-01-11T15:05:27;-18249.69;;;0.74;74.54
60583;BME280;46415;47.536;19.066;2024-01-11T15:08:30;-18248.72;;;0.70;72.26
60583;BME280;46415;47.536;19.066;2024-01-11T15:11:33;-18248.59;;;0.70;77.57
60583;BME280;46415;47.536;19.066;2024-01-11T15:14:38;-18246.66;;;0.63;78.38
60583;BME280;46415;47.536;19.066;2024-01-11T15:17:41;-18242.25;;;0.47;81.56
60583;BME280;46415;47.536;19.066;2024-01-11T15:20:44;-18240.72;;;0.41;82.85
60583;BME280;46415;47.536;19.066;2024-01-11T15:23:47;-18240.03;;;0.38;84.25
60583;BME280;46415;47.536;19.066;2024-01-11T15:26:51;-18239.06;;;0.35;84.97
60583;BME280;46415;47.536;19.066;2024-01-11T15:29:54;-18238.09;;;0.31;85.24
60583;BME280;46415;47.536;19.066;2024-01-11T15:32:57;-18239.63;;;0.37;80.44
60583;BME280;46415;47.536;19.066;2024-01-11T15:36:04;-18242.53;;;0.48;74.11
60583;BME280;46415;47.536;19.066;2024-01-11T15:39:07;-18245.81;;;0.60;70.74
60583;BME280;46415;47.536;19.066;2024-01-11T15:42:28;-18249.28;;;0.72;64.25
60583;BME280;46415;47.536;19.066;2024-01-11T15:45:31;-18249.97;;;0.75;64.98